Home > Products > Valid Products > TAF

000
FTPA31 PHFO 230900 AAA
TAFHNL
TAF AMD
PHNL 230905Z 2309/2412 04009KT P6SM FEW030 SCT050
     FM232000 06015G22KT P6SM FEW030 SCT050
     FM240400 04011KT P6SM FEW030 SCT050=



000
FTPA31 PHFO 230900 AAA
TAFHNL
TAF AMD
PHNL 230905Z 2309/2412 04009KT P6SM FEW030 SCT050
     FM232000 06015G22KT P6SM FEW030 SCT050
     FM240400 04011KT P6SM FEW030 SCT050=



000
FTPA31 PHFO 230500
TAFHNL
TAF
PHNL 230536Z 2306/2412 04009KT P6SM FEW030 SCT050
     FM232000 06015G22KT P6SM FEW030 SCT050
     FM240400 04011KT P6SM FEW030 SCT050=



000
FTPA31 PHFO 230500
TAFHNL
TAF
PHNL 230536Z 2306/2412 04009KT P6SM FEW030 SCT050
     FM232000 06015G22KT P6SM FEW030 SCT050
     FM240400 04011KT P6SM FEW030 SCT050=



000
FTPA31 PHFO 230300 AAA
TAFHNL
TAF AMD
PHNL 230306Z 2303/2406 06013KT P6SM FEW030 SCT060
     FM230500 05007KT P6SM FEW030
     FM232000 06015G22KT P6SM FEW030 SCT050=



000
FTPA31 PHFO 230300 AAA
TAFHNL
TAF AMD
PHNL 230306Z 2303/2406 06013KT P6SM FEW030 SCT060
     FM230500 05007KT P6SM FEW030
     FM232000 06015G22KT P6SM FEW030 SCT050=



000
FTPA31 PHFO 222300
TAFHNL
TAF
PHNL 222327Z 2300/2406 06014G20KT P6SM FEW030 SCT050
     FM230500 05007KT P6SM FEW030
     FM232000 06015G22KT P6SM FEW030 SCT050=



000
FTPA31 PHFO 222300
TAFHNL
TAF
PHNL 222327Z 2300/2406 06014G20KT P6SM FEW030 SCT050
     FM230500 05007KT P6SM FEW030
     FM232000 06015G22KT P6SM FEW030 SCT050=



000
FTPA31 PHFO 222100 AAA
TAFHNL
TAF AMD
PHNL 222108Z 2221/2324 06014G20KT P6SM FEW030 SCT050
     FM230600 05007KT P6SM FEW030
     FM232000 06015G22KT P6SM FEW030 SCT050=



000
FTPA31 PHFO 222100 AAA
TAFHNL
TAF AMD
PHNL 222108Z 2221/2324 06014G20KT P6SM FEW030 SCT050
     FM230600 05007KT P6SM FEW030
     FM232000 06015G22KT P6SM FEW030 SCT050=



000
FTPA31 PHFO 221700
TAFHNL
TAF
PHNL 221733Z 2218/2324 35004KT P6SM FEW025
     FM222000 06012KT P6SM FEW030 SCT050
     FM230600 05006KT P6SM FEW030
     FM232000 06015G22KT P6SM FEW030 SCT050=



000
FTPA31 PHFO 221700
TAFHNL
TAF
PHNL 221733Z 2218/2324 35004KT P6SM FEW025
     FM222000 06012KT P6SM FEW030 SCT050
     FM230600 05006KT P6SM FEW030
     FM232000 06015G22KT P6SM FEW030 SCT050=



000
FTPA31 PHFO 221400 AAA
TAFHNL
TAF AMD
PHNL 221500Z 2215/2318 05008KT P6SM SCT025
     FM222000 06012KT P6SM SCT030 BKN050
     FM230600 05010KT P6SM SCT050
     FM230800 05008KT P6SM SCT050=



000
FTPA31 PHFO 221400 AAA
TAFHNL
TAF AMD
PHNL 221500Z 2215/2318 05008KT P6SM SCT025
     FM222000 06012KT P6SM SCT030 BKN050
     FM230600 05010KT P6SM SCT050
     FM230800 05008KT P6SM SCT050=



000
FTPA31 PHFO 221100
TAFHNL
TAF
PHNL 221120Z 2212/2318 05008KT P6SM SCT025
     FM222000 06012KT P6SM SCT030 BKN050
     FM230600 05010KT P6SM SCT050
     FM230800 05008KT P6SM SCT050=



000
FTPA31 PHFO 221100
TAFHNL
TAF
PHNL 221120Z 2212/2318 05008KT P6SM SCT025
     FM222000 06012KT P6SM SCT030 BKN050
     FM230600 05010KT P6SM SCT050
     FM230800 05008KT P6SM SCT050=



000
FTPA31 PHFO 220900 AAA
TAFHNL
TAF AMD
PHNL 220905Z 2209/2312 05008KT P6SM SCT050
     FM222000 06012KT P6SM SCT030 BKN050
     FM230600 05010KT P6SM SCT030 BKN050=



000
FTPA31 PHFO 220900 AAA
TAFHNL
TAF AMD
PHNL 220905Z 2209/2312 05008KT P6SM SCT050
     FM222000 06012KT P6SM SCT030 BKN050
     FM230600 05010KT P6SM SCT030 BKN050=



000
FTPA31 PHFO 220500
TAFHNL
TAF
PHNL 220520Z 2206/2312 05010KT P6SM SCT030 BKN050
     FM220900 05008KT P6SM SCT050
     FM222000 06012KT P6SM SCT030 BKN050
     FM230600 05010KT P6SM SCT030 BKN050=



000
FTPA31 PHFO 220500
TAFHNL
TAF
PHNL 220520Z 2206/2312 05010KT P6SM SCT030 BKN050
     FM220900 05008KT P6SM SCT050
     FM222000 06012KT P6SM SCT030 BKN050
     FM230600 05010KT P6SM SCT030 BKN050=



000
FTPA31 PHFO 220200 AAA
TAFHNL
TAF AMD
PHNL 220255Z 2203/2306 05010KT P6SM FEW030 BKN045
     FM220800 VRB05KT P6SM FEW030 SCT060
     FM222000 06011G15KT P6SM FEW030 SCT060=



000
FTPA31 PHFO 220200 AAA
TAFHNL
TAF AMD
PHNL 220255Z 2203/2306 05010KT P6SM FEW030 BKN045
     FM220800 VRB05KT P6SM FEW030 SCT060
     FM222000 06011G15KT P6SM FEW030 SCT060=



000
FTPA31 PHFO 212300
TAFHNL
TAF
PHNL 212330Z 2200/2306 12009KT P6SM VCSH SCT030 BKN060
     FM220300 07009KT P6SM FEW030 SCT060
     FM220800 VRB05KT P6SM FEW030 SCT060
     FM222000 06011G15KT P6SM FEW030 SCT060=



000
FTPA31 PHFO 212300
TAFHNL
TAF
PHNL 212330Z 2200/2306 12009KT P6SM VCSH SCT030 BKN060
     FM220300 07009KT P6SM FEW030 SCT060
     FM220800 VRB05KT P6SM FEW030 SCT060
     FM222000 06011G15KT P6SM FEW030 SCT060=



000
FTPA31 PHFO 212100 AAA
TAFHNL
TAF AMD
PHNL 212107Z 2121/2224 22006KT P6SM SCT030 BKN060
     FM212300 13009KT P6SM SCT030 BKN060
     FM220300 07009KT P6SM FEW030 SCT060
     FM220800 VRB03KT P6SM FEW030 SCT060
     FM222000 06011G15KT P6SM FEW030 SCT060=



000
FTPA31 PHFO 211700
TAFHNL
TAF
PHNL 211736Z 2118/2224 33003KT P6SM FEW025 SCT050
     FM212000 13009KT P6SM FEW030 SCT060
     FM220300 07009KT P6SM FEW030 SCT060
     FM220800 VRB03KT P6SM FEW030 SCT060
     FM222000 06011G15KT P6SM FEW030 SCT060=



000
FTPA31 PHFO 211700
TAFHNL
TAF
PHNL 211736Z 2118/2224 33003KT P6SM FEW025 SCT050
     FM212000 13009KT P6SM FEW030 SCT060
     FM220300 07009KT P6SM FEW030 SCT060
     FM220800 VRB03KT P6SM FEW030 SCT060
     FM222000 06011G15KT P6SM FEW030 SCT060=



000
FTPA31 PHFO 211400 AAA
TAFHNL
TAF AMD
PHNL 211421Z 2115/2218 VRB03KT P6SM FEW025 SCT050
     FM212000 08009KT P6SM FEW030 SCT060
     FM220800 VRB03KT P6SM FEW030 SCT060=



000
FTPA31 PHFO 211400 AAA
TAFHNL
TAF AMD
PHNL 211421Z 2115/2218 VRB03KT P6SM FEW025 SCT050
     FM212000 08009KT P6SM FEW030 SCT060
     FM220800 VRB03KT P6SM FEW030 SCT060=



000
FTPA31 PHFO 211100
TAFHNL
TAF
PHNL 211121Z 2112/2218 03004KT P6SM FEW030 SCT060
     FM212000 09010KT P6SM FEW030 SCT060
     FM220600 06004KT P6SM FEW030 SCT060=



000
FTPA31 PHFO 211100
TAFHNL
TAF
PHNL 211121Z 2112/2218 03004KT P6SM FEW030 SCT060
     FM212000 09010KT P6SM FEW030 SCT060
     FM220600 06004KT P6SM FEW030 SCT060=



000
FTPA31 PHFO 210800 RRA
TAFHNL
TAF
PHNL 210831Z 2109/2212 03004KT P6SM FEW030 SCT060
     FM212000 09010KT P6SM FEW030 SCT060
     FM220600 06004KT P6SM FEW030 SCT060=



000
FTPA31 PHFO 210500
TAFHNL
TAF
PHNL 210531Z 2106/2212 VRB04KT P6SM FEW030 SCT060
      TEMPO 2106/2109 -SHRA SCT025 BKN050
     FM212000 11010KT P6SM FEW030 SCT060
     FM220600 05007KT P6SM FEW030 SCT060=



000
FTPA31 PHFO 210500
TAFHNL
TAF
PHNL 210531Z 2106/2212 VRB04KT P6SM FEW030 SCT060
      TEMPO 2106/2109 -SHRA SCT025 BKN050
     FM212000 11010KT P6SM FEW030 SCT060
     FM220600 05007KT P6SM FEW030 SCT060=



000
FTPA31 PHFO 210300 AAA
TAFHNL
TAF AMD
PHNL 210305Z 2103/2206 02005KT P6SM FEW035 BKN050
     FM210600 01004KT P6SM FEW030 SCT060
     FM212000 13009KT P6SM FEW030 SCT050
     FM220500 05006KT P6SM FEW030 SCT050=



000
FTPA31 PHFO 210300 AAA
TAFHNL
TAF AMD
PHNL 210305Z 2103/2206 02005KT P6SM FEW035 BKN050
     FM210600 01004KT P6SM FEW030 SCT060
     FM212000 13009KT P6SM FEW030 SCT050
     FM220500 05006KT P6SM FEW030 SCT050=



000
FTPA31 PHFO 202300
TAFHNL
TAF
PHNL 202338Z 2100/2206 16009KT P6SM FEW035 SCT060
     FM210600 04004KT P6SM FEW030 SCT060
     FM212000 13009KT P6SM FEW030 SCT050
     FM220500 05006KT P6SM FEW030 SCT050=



000
FTPA31 PHFO 202300
TAFHNL
TAF
PHNL 202338Z 2100/2206 16009KT P6SM FEW035 SCT060
     FM210600 04004KT P6SM FEW030 SCT060
     FM212000 13009KT P6SM FEW030 SCT050
     FM220500 05006KT P6SM FEW030 SCT050=



000
FTPA31 PHFO 202100 AAA
TAFHNL
TAF AMD
PHNL 202105Z 2021/2124 17009KT P6SM FEW035 SCT060
     FM210600 04004KT P6SM FEW030 SCT060
     FM212000 12009KT P6SM FEW030 SCT050=



000
FTPA31 PHFO 202100 AAA
TAFHNL
TAF AMD
PHNL 202105Z 2021/2124 17009KT P6SM FEW035 SCT060
     FM210600 04004KT P6SM FEW030 SCT060
     FM212000 12009KT P6SM FEW030 SCT050=



000
FTPA31 PHFO 201700
TAFHNL
TAF
PHNL 201736Z 2018/2124 32004KT P6SM FEW030 SCT060
     FM202000 17009KT P6SM FEW035 SCT060
     FM210600 04004KT P6SM FEW030 SCT060
     FM212000 12009KT P6SM FEW030 SCT050=



000
FTPA31 PHFO 201400 AAA
TAFHNL
TAF AMD
PHNL 201421Z 2015/2118 32004KT P6SM FEW030 SCT060
     FM202000 09010KT P6SM FEW035 SCT070
     FM210600 06004KT P6SM FEW030 SCT060=



000
FTPA31 PHFO 201400 AAA
TAFHNL
TAF AMD
PHNL 201421Z 2015/2118 32004KT P6SM FEW030 SCT060
     FM202000 09010KT P6SM FEW035 SCT070
     FM210600 06004KT P6SM FEW030 SCT060=



000
FTPA31 PHFO 201100
TAFHNL
TAF
PHNL 201121Z 2012/2118 36004KT P6SM FEW030 SCT060
     FM202000 13010KT P6SM FEW035 SCT070
     FM210600 06004KT P6SM FEW030 SCT060=



000
FTPA31 PHFO 201100
TAFHNL
TAF
PHNL 201121Z 2012/2118 36004KT P6SM FEW030 SCT060
     FM202000 13010KT P6SM FEW035 SCT070
     FM210600 06004KT P6SM FEW030 SCT060=



    US Dept of Commerce
    National Oceanic and Atmospheric Administration
    National Weather Service
    1325 East West Highway
    Silver Spring, MD 20910
    Page Author: NWS Internet Services Team
Disclaimer
Information Quality
Credits
Glossary
Privacy Policy
Freedom of Information Act (FOIA)
About Us
Career Opportunities